Time;durP1;ratioP1;P1;durP2;ratioP2;P2;SDS_P1;SDS_P2;PMS_P1;PMS_P2;Temp;Humidity;BMP_temperature;BMP_pressure;BME280_temperature;BME280_humidity;BME280_pressure;Samples;Min_cycle;Max_cycle;Signal;HPM_P1;HPM_P2
2022/02/13 00:00:37;;;;;;;39.55;28.02;;;;;;;-0.48;94.83;96542.16;5091990;28;20032;-52
2022/02/13 00:03:02;;;;;;;41.22;28.17;;;;;;;-0.54;95.38;96544.97;5089862;28;20040;-48
2022/02/13 00:05:28;;;;;;;43.25;28.33;;;;;;;-0.59;94.88;96539.94;5091379;28;20032;-49
2022/02/13 00:07:53;;;;;;;42.17;25.98;;;;;;;-0.56;94.79;96543.31;5092461;28;20020;-52
2022/02/13 00:10:18;;;;;;;35.42;23.63;;;;;;;-0.62;94.27;96545.22;5090085;28;20067;-50
2022/02/13 00:12:44;;;;;;;31.27;22.38;;;;;;;-0.67;94.57;96554.91;5091848;28;20415;-52
2022/02/13 00:15:10;;;;;;;39.33;24.98;;;;;;;-0.72;94.17;96549.03;5090396;28;20016;-52
2022/02/13 00:17:35;;;;;;;36.10;24.38;;;;;;;-0.73;94.83;96547.34;5089537;28;20036;-52
2022/02/13 00:20:02;;;;;;;32.13;23.95;;;;;;;-0.76;95.14;96540.53;5087098;28;20039;-53
2022/02/13 00:22:28;;;;;;;35.03;24.90;;;;;;;-0.80;94.80;96538.09;5090550;28;20040;-48
2022/02/13 00:24:54;;;;;;;35.55;25.25;;;;;;;-0.80;95.32;96538.09;5088632;28;20081;-50
2022/02/13 00:27:19;;;;;;;34.53;23.85;;;;;;;-0.83;94.44;96543.38;5087645;28;20085;-53
2022/02/13 00:29:44;;;;;;;27.10;19.63;;;;;;;-0.85;95.01;96534.81;5091916;28;20027;-51
2022/02/13 00:32:10;;;;;;;23.70;17.75;;;;;;;-0.91;95.25;96535.84;5085455;28;20058;-49
2022/02/13 00:34:36;;;;;;;22.08;17.45;;;;;;;-0.95;95.10;96536.84;5089099;28;20043;-49
2022/02/13 00:37:02;;;;;;;21.58;17.13;;;;;;;-0.92;95.47;96526.41;5086780;28;20032;-51
2022/02/13 00:39:28;;;;;;;23.33;15.45;;;;;;;-0.95;95.63;96521.34;5092279;28;20025;-49
2022/02/13 00:41:55;;;;;;;18.48;14.48;;;;;;;-1.00;94.92;96521.50;5090030;28;20035;-48
2022/02/13 00:44:20;;;;;;;22.40;15.52;;;;;;;-1.08;94.85;96516.59;5091278;28;20057;-49
2022/02/13 00:46:46;;;;;;;14.90;13.18;;;;;;;-1.10;96.19;96514.94;5081326;28;20106;-48
2022/02/13 00:49:11;;;;;;;18.23;12.98;;;;;;;-1.14;96.02;96513.38;5088451;28;20024;-50
2022/02/13 00:51:37;;;;;;;19.70;12.32;;;;;;;-1.16;96.27;96513.41;5091531;28;20024;-50
2022/02/13 00:54:02;;;;;;;13.43;11.02;;;;;;;-1.14;95.80;96510.78;5088258;28;20047;-51
2022/02/13 00:56:28;;;;;;;15.18;10.65;;;;;;;-1.12;96.31;96511.56;5087841;28;20043;-52
2022/02/13 00:58:53;;;;;;;23.30;16.60;;;;;;;-1.09;95.26;96512.31;5088378;28;20571;-52
2022/02/13 01:01:19;;;;;;;34.40;20.98;;;;;;;-1.14;96.85;96503.84;5084013;28;20540;-53
2022/02/13 01:03:45;;;;;;;37.28;21.08;;;;;;;-1.19;97.55;96511.78;5091530;28;20016;-50
2022/02/13 01:06:11;;;;;;;32.38;18.88;;;;;;;-1.21;97.61;96510.97;5089740;28;20023;-50
2022/02/13 01:08:36;;;;;;;34.65;19.02;;;;;;;-1.28;97.43;96504.31;5091824;28;20166;-49
2022/02/13 01:11:02;;;;;;;31.90;17.38;;;;;;;-1.22;96.46;96500.69;5091201;28;20106;-52
2022/02/13 01:13:29;;;;;;;65.03;31.30;;;;;;;-1.13;96.30;96490.03;5092326;28;20024;-49
2022/02/13 01:15:55;;;;;;;36.15;19.05;;;;;;;-1.13;97.32;96502.13;5088259;28;20024;-48
2022/02/13 01:18:21;;;;;;;27.92;16.13;;;;;;;-1.19;97.80;96496.28;5087005;28;20052;-48
2022/02/13 01:20:46;;;;;;;28.48;16.83;;;;;;;-1.20;97.61;96498.91;5091415;28;20024;-48
2022/02/13 01:23:12;;;;;;;27.42;14.82;;;;;;;-1.13;97.64;96490.03;5087204;28;20498;-53
2022/02/13 01:25:37;;;;;;;27.10;14.77;;;;;;;-1.13;97.08;96489.22;5089967;28;20027;-51
2022/02/13 01:28:03;;;;;;;18.75;13.07;;;;;;;-1.15;96.53;96499.56;5086256;28;20035;-50
2022/02/13 01:30:28;;;;;;;20.10;12.88;;;;;;;-1.18;96.80;96494.50;5088794;28;20036;-48
2022/02/13 01:32:54;;;;;;;19.85;13.85;;;;;;;-1.20;97.32;96494.59;5084694;28;20376;-49
2022/02/13 01:35:19;;;;;;;18.38;12.60;;;;;;;-1.27;96.83;96497.41;5073394;28;20107;-48
2022/02/13 01:37:45;;;;;;;15.90;13.02;;;;;;;-1.27;97.49;96497.41;5090488;28;20090;-50
2022/02/13 01:40:11;;;;;;;19.92;13.77;;;;;;;-1.25;97.44;96500.78;5091650;28;20052;-50
2022/02/13 01:42:36;;;;;;;20.17;14.05;;;;;;;-1.22;96.57;96495.50;5090796;28;20039;-48
2022/02/13 01:45:03;;;;;;;22.23;14.55;;;;;;;-1.24;96.17;96494.72;5083807;28;20035;-52
2022/02/13 01:47:29;;;;;;;27.65;18.27;;;;;;;-1.25;96.69;96491.28;5086297;28;20032;-51
2022/02/13 01:49:55;;;;;;;22.83;16.23;;;;;;;-1.22;95.60;96498.94;5090426;28;20521;-51
2022/02/13 01:52:21;;;;;;;23.92;16.83;;;;;;;-1.28;95.88;96491.38;5091263;28;20038;-52
2022/02/13 01:54:47;;;;;;;30.40;20.10;;;;;;;-1.34;96.01;96489.84;5086978;28;20027;-49
2022/02/13 01:57:12;;;;;;;27.15;18.52;;;;;;;-1.37;96.31;96484.78;5089188;28;20130;-49
2022/02/13 01:59:38;;;;;;;26.70;18.13;;;;;;;-1.45;96.46;96485.00;5089308;28;20115;-50
2022/02/13 02:02:04;;;;;;;21.55;15.30;;;;;;;-1.50;96.63;96486.06;5089109;28;20036;-50
2022/02/13 02:04:30;;;;;;;21.33;14.85;;;;;;;-1.51;96.83;96485.22;5090039;28;20032;-51
2022/02/13 02:06:55;;;;;;;18.40;13.77;;;;;;;-1.44;96.07;96480.69;5090001;28;20027;-49
2022/02/13 02:09:24;;;;;;;27.30;17.73;;;;;;;-1.42;96.48;96478.09;5086336;28;20039;-50
2022/02/13 02:11:49;;;;;;;23.08;13.98;;;;;;;-1.42;96.49;96483.25;5089754;28;20024;-51
2022/02/13 02:14:14;;;;;;;26.35;16.52;;;;;;;-1.47;96.12;96481.63;5089253;28;20028;-50
2022/02/13 02:16:40;;;;;;;19.42;14.00;;;;;;;-1.47;95.72;96478.22;5087902;28;20047;-50
2022/02/13 02:19:08;;;;;;;19.67;14.52;;;;;;;-1.46;96.00;96477.31;5087893;28;20059;-48
2022/02/13 02:21:34;;;;;;;20.65;14.80;;;;;;;-1.48;96.44;96474.78;5091521;28;20483;-48
2022/02/13 02:23:59;;;;;;;26.20;17.00;;;;;;;-1.54;95.82;96476.75;5090605;28;20035;-48
2022/02/13 02:26:25;;;;;;;21.35;16.40;;;;;;;-1.61;96.66;96469.16;5088503;28;20040;-51
2022/02/13 02:28:50;;;;;;;20.67;14.25;;;;;;;-1.62;98.04;96476.97;5088846;28;20028;-51
2022/02/13 02:31:16;;;;;;;22.67;12.63;;;;;;;-1.64;97.46;96466.69;5087454;28;20051;-52
2022/02/13 02:33:41;;;;;;;19.92;14.30;;;;;;;-1.64;97.33;96468.44;5087738;28;20059;-51
2022/02/13 02:36:14;;;;;;;17.80;12.07;;;;;;;-1.66;97.26;96472.78;5084483;28;20380;-50
2022/02/13 02:38:39;;;;;;;14.07;11.27;;;;;;;-1.69;97.37;96467.72;5088613;28;20031;-51
2022/02/13 02:41:05;;;;;;;13.32;11.07;;;;;;;-1.69;97.71;96465.13;5089845;28;20028;-50
2022/02/13 02:43:30;;;;;;;23.52;11.82;;;;;;;-1.70;97.99;96466.88;5078602;28;20028;-52
2022/02/13 02:45:55;;;;;;;18.45;13.45;;;;;;;-1.64;97.54;96463.28;5090137;28;20757;-48
2022/02/13 02:48:21;;;;;;;23.70;13.45;;;;;;;-1.62;97.07;96451.97;5087328;28;20036;-48
2022/02/13 02:50:46;;;;;;;20.95;13.77;;;;;;;-1.58;97.33;96457.91;5093521;28;20028;-49
2022/02/13 02:53:12;;;;;;;18.10;12.88;;;;;;;-1.68;97.05;96451.31;5091105;28;20368;-48
2022/02/13 02:55:37;;;;;;;19.92;13.07;;;;;;;-1.74;97.32;96453.22;5091755;28;20062;-51
2022/02/13 02:58:02;;;;;;;15.88;11.48;;;;;;;-1.75;96.85;96446.34;5091088;28;20493;-51
2022/02/13 03:00:28;;;;;;;17.52;11.80;;;;;;;-1.73;97.17;96449.72;5094463;28;20032;-48
2022/02/13 03:02:53;;;;;;;17.50;11.43;;;;;;;-1.72;97.14;96445.44;5092799;28;20491;-48
2022/02/13 03:05:19;;;;;;;14.95;11.80;;;;;;;-1.75;96.81;96442.94;5091734;28;20049;-50
2022/02/13 03:07:44;;;;;;;16.65;12.27;;;;;;;-1.77;97.30;96436.97;5091623;28;20020;-50
2022/02/13 03:10:10;;;;;;;19.70;14.57;;;;;;;-1.77;96.80;96432.66;5090850;28;20103;-50
2022/02/13 03:12:35;;;;;;;20.80;15.38;;;;;;;-1.77;97.32;96434.38;5094458;28;20035;-50
2022/02/13 03:15:00;;;;;;;23.90;17.38;;;;;;;-1.78;96.87;96425.81;5093588;28;20047;-51
2022/02/13 03:17:26;;;;;;;22.60;16.83;;;;;;;-1.81;97.10;96420.75;5093425;28;20047;-52
2022/02/13 03:19:51;;;;;;;19.45;15.40;;;;;;;-1.88;97.06;96417.50;5094563;28;20096;-52
2022/02/13 03:22:16;;;;;;;20.10;13.60;;;;;;;-1.90;97.32;96421.88;5093335;28;20479;-51
2022/02/13 03:24:42;;;;;;;20.95;13.75;;;;;;;-1.94;97.69;96414.25;5093244;28;20144;-51
2022/02/13 03:27:07;;;;;;;18.58;12.82;;;;;;;-1.95;97.83;96415.16;5093458;28;20024;-51
2022/02/13 03:29:33;;;;;;;14.00;11.48;;;;;;;-1.98;97.81;96408.38;5094366;28;20032;-54
2022/02/13 03:31:58;;;;;;;15.27;11.30;;;;;;;-1.98;97.41;96407.50;5093511;28;20032;-48
2022/02/13 03:34:23;;;;;;;13.77;9.80;;;;;;;-1.98;97.78;96410.09;5094061;28;20035;-51
2022/02/13 03:36:50;;;;;;;15.50;10.32;;;;;;;-1.98;97.18;96410.94;5091314;28;20068;-52
2022/02/13 03:39:16;;;;;;;15.70;10.68;;;;;;;-1.95;97.11;96408.28;5094000;28;20032;-52
2022/02/13 03:41:41;;;;;;;12.50;10.68;;;;;;;-1.96;96.94;96408.31;5094835;28;20031;-53
2022/02/13 03:44:08;;;;;;;12.68;9.80;;;;;;;-1.97;97.14;96404.91;5095171;28;20552;-51
2022/02/13 03:46:34;;;;;;;11.85;10.32;;;;;;;-1.94;96.46;96406.50;5094452;28;20120;-54
2022/02/13 03:48:59;;;;;;;11.90;10.00;;;;;;;-2.01;96.75;96405.84;5096569;28;20058;-54
2022/02/13 03:51:25;;;;;;;11.25;10.07;;;;;;;-2.06;97.27;96400.84;5094861;28;20089;-53
2022/02/13 03:53:50;;;;;;;11.27;9.55;;;;;;;-2.07;96.64;96395.72;5093356;28;20036;-49
2022/02/13 03:56:15;;;;;;;10.82;9.23;;;;;;;-2.08;97.16;96391.47;5092580;28;20109;-51
2022/02/13 03:58:41;;;;;;;10.38;7.75;;;;;;;-2.08;96.99;96388.88;5095684;28;20034;-52
2022/02/13 04:01:06;;;;;;;11.98;8.60;;;;;;;-2.09;97.72;96390.63;5092272;28;20040;-50
2022/02/13 04:03:31;;;;;;;9.60;7.63;;;;;;;-2.14;97.33;96384.75;5094605;28;20136;-52
2022/02/13 04:05:57;;;;;;;9.35;8.32;;;;;;;-2.19;97.63;96379.75;5093121;28;20032;-51
2022/02/13 04:08:23;;;;;;;10.88;8.23;;;;;;;-2.22;97.62;96381.56;5094456;28;20028;-53
2022/02/13 04:10:49;;;;;;;9.02;8.13;;;;;;;-2.23;97.85;96378.13;5094407;28;20031;-52
2022/02/13 04:13:14;;;;;;;9.02;8.18;;;;;;;-2.27;97.80;96375.72;5093919;28;20035;-52
2022/02/13 04:15:39;;;;;;;12.93;8.68;;;;;;;-2.31;97.60;96368.06;5093904;28;20034;-53
2022/02/13 04:18:18;;;;;;;10.93;9.40;;;;;;;-2.32;98.02;96368.09;5093789;28;20032;-51
2022/02/13 04:20:44;;;;;;;15.77;9.57;;;;;;;-2.28;98.64;96358.53;5095595;28;20030;-51
2022/02/13 04:23:10;;;;;;;11.05;7.70;;;;;;;-2.29;98.59;96357.69;5093750;28;20036;-53
2022/02/13 04:25:36;;;;;;;10.48;8.68;;;;;;;-2.29;98.12;96351.69;5094553;28;20073;-50
2022/02/13 04:28:02;;;;;;;9.18;8.15;;;;;;;-2.26;98.28;96351.59;5093818;28;20395;-51
2022/02/13 04:30:27;;;;;;;9.15;8.25;;;;;;;-2.22;98.84;96342.88;5095021;28;20036;-52
2022/02/13 04:32:55;;;;;;;9.88;8.82;;;;;;;-2.24;98.47;96342.06;5088790;28;20368;-49
2022/02/13 04:35:25;;;;;;;9.70;8.52;;;;;;;-2.29;97.83;96337.06;5093062;28;20032;-53
2022/02/13 04:37:52;;;;;;;10.18;9.18;;;;;;;-2.30;98.50;96343.09;5092457;28;20103;-52
2022/02/13 04:40:17;;;;;;;10.75;8.65;;;;;;;-2.30;99.56;96335.38;5089356;28;20043;-49
2022/02/13 04:42:43;;;;;;;9.93;8.95;;;;;;;-2.34;99.38;96339.75;5094503;28;20027;-52
2022/02/13 04:45:08;;;;;;;9.57;8.65;;;;;;;-2.38;99.20;96338.16;5092730;28;20069;-53
2022/02/13 04:47:34;;;;;;;10.25;8.40;;;;;;;-2.38;98.75;96335.59;5094570;28;20392;-52
2022/02/13 04:49:59;;;;;;;11.10;8.93;;;;;;;-2.37;98.98;96337.28;5092663;28;20028;-52
2022/02/13 04:52:24;;;;;;;10.75;8.43;;;;;;;-2.35;99.00;96332.91;5093885;28;20088;-52
2022/02/13 04:54:50;;;;;;;13.93;9.98;;;;;;;-2.30;99.11;96330.19;5074901;28;20484;-50
2022/02/13 04:57:15;;;;;;;12.82;9.55;;;;;;;-2.33;98.96;96336.28;5093811;28;20035;-50
2022/02/13 04:59:41;;;;;;;10.88;8.63;;;;;;;-2.39;99.16;96333.91;5093812;28;20372;-49
2022/02/13 05:02:07;;;;;;;9.52;8.15;;;;;;;-2.42;99.67;96331.44;5093425;28;20032;-51
2022/02/13 05:04:33;;;;;;;9.80;7.60;;;;;;;-2.41;98.93;96338.28;5093295;28;20044;-51
2022/02/13 05:06:59;;;;;;;9.82;8.77;;;;;;;-2.42;98.84;96326.25;5093182;28;20387;-48
2022/02/13 05:09:24;;;;;;;8.65;7.85;;;;;;;-2.39;99.25;96320.19;5093148;28;20499;-50
2022/02/13 05:11:50;;;;;;;10.20;8.18;;;;;;;-2.41;98.76;96329.69;5093798;28;20026;-53
2022/02/13 05:14:15;;;;;;;9.48;8.38;;;;;;;-2.43;98.17;96322.00;5092605;28;20107;-52
2022/02/13 05:16:41;;;;;;;11.35;8.85;;;;;;;-2.45;98.34;96314.31;5092333;28;20368;-50
2022/02/13 05:19:07;;;;;;;10.95;9.02;;;;;;;-2.47;98.58;96303.19;5093128;28;20110;-50
2022/02/13 05:21:33;;;;;;;9.85;8.32;;;;;;;-2.46;98.65;96309.19;5093741;28;20144;-53
2022/02/13 05:23:58;;;;;;;15.70;7.75;;;;;;;-2.43;99.64;96303.94;5092995;28;20487;-51
2022/02/13 05:26:24;;;;;;;8.02;7.35;;;;;;;-2.43;99.05;96293.63;5092771;28;20415;-49
2022/02/13 05:28:50;;;;;;;9.95;7.93;;;;;;;-2.49;99.00;96292.09;5093720;28;20030;-51
2022/02/13 05:31:17;;;;;;;8.70;7.80;;;;;;;-2.53;98.80;96294.81;5092486;28;20036;-52
2022/02/13 05:33:43;;;;;;;11.32;8.18;;;;;;;-2.52;98.96;96293.94;5093431;28;20031;-50
2022/02/13 05:36:08;;;;;;;13.43;8.23;;;;;;;-2.51;98.47;96286.13;5091757;28;20098;-51
2022/02/13 05:38:34;;;;;;;12.88;9.05;;;;;;;-2.50;98.72;96287.81;5091620;28;20032;-52
2022/02/13 05:40:59;;;;;;;13.75;9.40;;;;;;;-2.49;98.75;96289.50;5092385;28;20032;-52
2022/02/13 05:43:27;;;;;;;12.27;8.77;;;;;;;-2.45;97.66;96283.34;5094119;28;20036;-52
2022/02/13 05:45:52;;;;;;;13.95;10.65;;;;;;;-2.41;99.13;96280.69;5091611;28;20063;-49
2022/02/13 05:48:17;;;;;;;16.13;11.48;;;;;;;-2.42;99.82;96289.34;5092519;28;20127;-50
2022/02/13 05:50:43;;;;;;;13.38;10.30;;;;;;;-2.51;100.00;96290.47;5094169;28;20402;-49
2022/02/13 05:53:08;;;;;;;11.20;9.18;;;;;;;-2.54;100.00;96285.38;5096052;28;20051;-52
2022/02/13 05:55:34;;;;;;;12.05;9.50;;;;;;;-2.59;100.00;96286.34;5093791;28;20036;-49
2022/02/13 05:57:59;;;;;;;11.05;9.18;;;;;;;-2.56;100.00;96289.72;5092663;28;20107;-53
2022/02/13 06:00:25;;;;;;;10.20;9.13;;;;;;;-2.58;100.00;96294.94;5088746;28;20071;-53
2022/02/13 06:02:51;;;;;;;12.48;10.13;;;;;;;-2.61;100.00;96284.75;5092248;28;20126;-51
2022/02/13 06:05:16;;;;;;;16.10;11.07;;;;;;;-2.61;100.00;96288.13;5091702;28;20092;-50
2022/02/13 06:07:43;;;;;;;11.82;10.57;;;;;;;-2.61;100.00;96290.72;5091400;28;20032;-49
2022/02/13 06:10:11;;;;;;;12.30;9.70;;;;;;;-2.60;99.66;96291.59;5092457;28;20028;-53
2022/02/13 06:12:37;;;;;;;14.27;10.93;;;;;;;-2.59;99.83;96288.09;5091509;28;20077;-51
2022/02/13 06:15:04;;;;;;;13.68;11.20;;;;;;;-2.63;99.63;96289.94;5091269;28;20020;-53
2022/02/13 06:17:30;;;;;;;15.35;12.57;;;;;;;-2.65;99.12;96288.31;5095626;28;20052;-51
2022/02/13 06:19:55;;;;;;;22.25;15.00;;;;;;;-2.68;99.92;96285.78;5096227;28;20028;-51
2022/02/13 06:22:21;;;;;;;17.40;15.57;;;;;;;-2.72;99.54;96282.47;5095478;28;20032;-49
2022/02/13 06:24:46;;;;;;;23.23;14.70;;;;;;;-2.75;98.85;96290.31;5096862;28;20035;-52
2022/02/13 06:27:11;;;;;;;20.55;16.00;;;;;;;-2.79;99.57;96279.25;5095813;28;20444;-50
2022/02/13 06:29:37;;;;;;;23.40;18.15;;;;;;;-2.80;99.71;96277.56;5097366;28;20031;-52
2022/02/13 06:32:02;;;;;;;20.25;16.13;;;;;;;-2.78;99.76;96282.66;5095000;28;20051;-52
2022/02/13 06:34:28;;;;;;;14.95;13.45;;;;;;;-2.72;99.69;96290.22;5096485;28;20035;-53
2022/02/13 06:36:53;;;;;;;16.42;11.93;;;;;;;-2.71;99.64;96286.75;5095558;28;20028;-52
2022/02/13 06:39:19;;;;;;;13.43;12.02;;;;;;;-2.72;98.73;96287.63;5096181;28;20028;-49
2022/02/13 06:41:44;;;;;;;12.98;11.65;;;;;;;-2.72;98.79;96289.34;5095383;28;20047;-50
2022/02/13 06:44:10;;;;;;;13.88;11.50;;;;;;;-2.76;99.14;96289.47;5096592;28;20161;-52
2022/02/13 06:46:36;;;;;;;14.52;11.52;;;;;;;-2.76;99.10;96286.88;5095715;28;20391;-50
2022/02/13 06:49:01;;;;;;;12.77;10.50;;;;;;;-2.73;99.21;96296.25;5095190;28;20036;-51
2022/02/13 06:51:26;;;;;;;14.70;11.57;;;;;;;-2.65;100.00;96294.28;5097311;28;20476;-51
2022/02/13 06:53:52;;;;;;;12.70;10.13;;;;;;;-2.63;100.00;96295.09;5094972;28;20049;-48
2022/02/13 06:56:17;;;;;;;12.50;10.18;;;;;;;-2.66;100.00;96302.91;5095712;28;20032;-52
2022/02/13 06:58:43;;;;;;;11.88;10.48;;;;;;;-2.71;99.90;96297.06;5097345;28;20394;-50
2022/02/13 07:01:09;;;;;;;11.77;9.95;;;;;;;-2.69;99.46;96300.44;5095099;28;20093;-50
2022/02/13 07:03:35;;;;;;;11.65;10.45;;;;;;;-2.69;99.53;96307.31;5095804;28;20047;-54
2022/02/13 07:06:02;;;;;;;14.52;11.30;;;;;;;-2.70;99.41;96309.06;5095508;28;20129;-51
2022/02/13 07:08:28;;;;;;;16.02;12.30;;;;;;;-2.67;99.62;96303.81;5095753;28;20028;-51
2022/02/13 07:10:53;;;;;;;14.93;12.40;;;;;;;-2.62;100.00;96307.09;5095762;28;20418;-52
2022/02/13 07:13:19;;;;;;;15.23;12.15;;;;;;;-2.59;98.83;96304.41;5095424;28;20402;-50
2022/02/13 07:15:44;;;;;;;19.33;14.27;;;;;;;-2.55;100.00;96305.16;5095326;28;20023;-52
2022/02/13 07:18:10;;;;;;;15.07;13.32;;;;;;;-2.52;100.00;96306.81;5094496;28;20093;-52
2022/02/13 07:20:35;;;;;;;14.52;12.98;;;;;;;-2.52;99.96;96296.50;5096621;28;20024;-49
2022/02/13 07:23:01;;;;;;;14.45;12.95;;;;;;;-2.55;99.84;96302.59;5094339;28;20380;-52
2022/02/13 07:25:26;;;;;;;17.00;12.95;;;;;;;-2.56;100.00;96302.63;5080024;28;20078;-52
2022/02/13 07:27:52;;;;;;;18.25;13.70;;;;;;;-2.57;100.00;96288.91;5095788;28;20036;-53
2022/02/13 07:30:17;;;;;;;16.70;14.90;;;;;;;-2.50;99.79;96294.72;5089814;28;20062;-52
2022/02/13 07:32:44;;;;;;;16.30;14.45;;;;;;;-2.47;100.00;96292.03;5096008;28;20507;-50
2022/02/13 07:35:10;;;;;;;14.73;13.18;;;;;;;-2.42;99.66;96295.31;5094801;28;20040;-50
2022/02/13 07:37:36;;;;;;;18.13;12.60;;;;;;;-2.42;99.62;96282.44;5096766;28;20032;-50
2022/02/13 07:40:03;;;;;;;16.42;13.45;;;;;;;-2.36;99.80;96279.66;5093570;28;20029;-51
2022/02/13 07:42:28;;;;;;;16.63;14.73;;;;;;;-2.30;99.61;96278.63;5094828;28;20089;-49
2022/02/13 07:44:53;;;;;;;16.13;13.43;;;;;;;-2.32;98.90;96273.53;5094215;28;20031;-52
2022/02/13 07:47:19;;;;;;;16.75;15.00;;;;;;;-2.37;99.77;96271.97;5093579;28;20111;-52
2022/02/13 07:49:44;;;;;;;14.88;13.02;;;;;;;-2.36;99.52;96269.31;5095167;28;20039;-49
2022/02/13 07:52:10;;;;;;;16.00;13.05;;;;;;;-2.34;99.44;96266.72;5095168;28;20028;-48
2022/02/13 07:54:35;;;;;;;17.10;13.95;;;;;;;-2.28;99.88;96265.69;5095149;28;20111;-50
2022/02/13 07:57:00;;;;;;;16.75;14.07;;;;;;;-2.26;99.20;96259.56;5093059;28;20032;-49
2022/02/13 07:59:26;;;;;;;21.90;16.83;;;;;;;-2.23;99.21;96259.47;5093449;28;20021;-49
2022/02/13 08:01:51;;;;;;;23.02;17.55;;;;;;;-2.18;98.97;96262.75;5092158;28;20486;-50
2022/02/13 08:04:17;;;;;;;22.90;17.52;;;;;;;-2.13;99.59;96259.19;5093336;28;20407;-51
2022/02/13 08:06:42;;;;;;;16.88;15.02;;;;;;;-2.04;99.43;96257.13;5094574;28;20118;-49
2022/02/13 08:09:07;;;;;;;20.27;15.60;;;;;;;-2.05;99.22;96262.34;5094421;28;20024;-50
2022/02/13 08:11:33;;;;;;;20.83;16.20;;;;;;;-2.08;99.24;96255.56;5094628;28;20032;-50
2022/02/13 08:13:59;;;;;;;22.02;15.75;;;;;;;-2.07;99.21;96257.25;5091971;28;20113;-51
2022/02/13 08:16:25;;;;;;;17.10;15.43;;;;;;;-2.06;99.20;96251.19;5091971;28;20040;-50
2022/02/13 08:18:50;;;;;;;19.92;16.08;;;;;;;-2.00;99.24;96254.44;5090278;28;20047;-48
2022/02/13 08:21:16;;;;;;;19.52;16.35;;;;;;;-1.99;99.45;96256.13;5091098;28;20092;-49
2022/02/13 08:23:41;;;;;;;18.42;16.33;;;;;;;-1.85;98.64;96253.94;5088110;28;21590;-50
2022/02/13 08:26:07;;;;;;;18.23;16.38;;;;;;;-1.90;99.04;96250.66;5089946;28;20024;-49
2022/02/13 08:28:34;;;;;;;17.00;14.65;;;;;;;-1.88;99.04;96254.03;5091278;28;20410;-49
2022/02/13 08:31:01;;;;;;;15.70;13.80;;;;;;;-1.74;99.13;96251.00;5092566;28;20039;-48
2022/02/13 08:33:26;;;;;;;17.40;13.93;;;;;;;-1.73;99.48;96253.50;5093399;28;20059;-48
2022/02/13 08:35:52;;;;;;;18.27;16.17;;;;;;;-1.73;100.00;96252.69;5093576;28;20067;-50
2022/02/13 08:38:17;;;;;;;20.40;15.60;;;;;;;-1.69;100.00;96248.22;5092666;28;20551;-50
2022/02/13 08:40:43;;;;;;;17.33;15.50;;;;;;;-1.56;100.00;96249.50;5091622;28;20024;-48
2022/02/13 08:43:09;;;;;;;18.13;15.65;;;;;;;-1.19;99.97;96242.16;5091071;28;20028;-50
2022/02/13 08:45:36;;;;;;;16.08;13.95;;;;;;;-0.80;99.71;96240.72;5091715;28;20036;-49
2022/02/13 08:48:02;;;;;;;17.50;14.75;;;;;;;-0.35;98.72;96246.75;5092807;28;20031;-49
2022/02/13 08:50:28;;;;;;;17.35;15.52;;;;;;;0.18;98.48;96237.69;5092309;28;20039;-51
2022/02/13 08:52:54;;;;;;;15.77;14.27;;;;;;;0.48;95.38;96242.47;5093394;28;20129;-49
2022/02/13 08:55:20;;;;;;;19.33;15.98;;;;;;;0.77;93.94;96229.16;5092117;28;20044;-51
2022/02/13 08:57:46;;;;;;;18.52;16.58;;;;;;;1.07;94.01;96236.44;5091673;28;20439;-52
2022/02/13 09:00:14;;;;;;;15.30;11.85;;;;;;;1.25;91.28;96229.59;5091263;28;20522;-48
2022/02/13 09:02:40;;;;;;;12.60;11.40;;;;;;;1.47;91.33;96219.03;5088720;28;20458;-51
2022/02/13 09:05:07;;;;;;;12.27;11.05;;;;;;;1.73;90.30;96213.50;5089833;28;20036;-49
2022/02/13 09:07:35;;;;;;;14.48;12.13;;;;;;;2.00;91.79;96203.53;5069675;28;20400;-50
2022/02/13 09:10:01;;;;;;;13.80;9.52;;;;;;;2.26;90.59;96212.56;5091640;28;20024;-49
2022/02/13 09:12:29;;;;;;;9.98;8.85;;;;;;;2.72;88.47;96203.31;5090392;28;20067;-51
2022/02/13 09:14:55;;;;;;;12.90;10.90;;;;;;;3.01;84.35;96203.53;5088416;28;20024;-50
2022/02/13 09:17:20;;;;;;;12.65;9.82;;;;;;;3.23;85.55;96208.41;5092439;28;20054;-51
2022/02/13 09:19:45;;;;;;;12.52;8.45;;;;;;;3.37;84.86;96202.44;5091418;28;20027;-49
2022/02/13 09:22:11;;;;;;;10.27;8.32;;;;;;;3.50;83.04;96205.19;5090422;28;20410;-50
2022/02/13 09:24:36;;;;;;;9.10;7.72;;;;;;;3.71;80.36;96202.31;5092828;28;20054;-50
2022/02/13 09:27:02;;;;;;;11.32;7.65;;;;;;;3.95;83.71;96207.03;5092909;28;20024;-49
2022/02/13 09:29:27;;;;;;;8.82;5.85;;;;;;;4.05;76.83;96210.81;5091531;28;20020;-49
2022/02/13 09:31:53;;;;;;;10.85;6.25;;;;;;;4.26;78.80;96215.69;5091910;28;20031;-49
2022/02/13 09:34:25;;;;;;;9.57;6.80;;;;;;;4.40;78.85;96213.09;5091619;28;20085;-50
2022/02/13 09:36:50;;;;;;;9.65;7.55;;;;;;;4.68;76.10;96210.63;5091711;28;20024;-46
2022/02/13 09:39:15;;;;;;;8.13;7.10;;;;;;;4.95;71.55;96207.25;5092895;28;20047;-47
2022/02/13 09:41:41;;;;;;;6.32;5.72;;;;;;;5.16;73.48;96208.53;5093282;28;20028;-47
2022/02/13 09:44:09;;;;;;;7.55;6.28;;;;;;;5.44;70.80;96201.59;5092480;28;20028;-48
2022/02/13 09:46:34;;;;;;;8.38;5.30;;;;;;;5.71;68.45;96207.72;5092591;28;20032;-48
2022/02/13 09:49:01;;;;;;;7.55;5.15;;;;;;;6.04;69.54;96205.66;5092531;28;20028;-48
2022/02/13 09:51:29;;;;;;;5.70;5.20;;;;;;;6.26;69.00;96205.91;5093129;28;20475;-49
2022/02/13 09:53:54;;;;;;;7.00;5.30;;;;;;;6.42;66.47;96207.50;5091808;28;20028;-49
2022/02/13 09:56:19;;;;;;;9.57;5.07;;;;;;;6.36;65.69;96205.31;5092641;28;20034;-48
2022/02/13 09:58:45;;;;;;;7.60;5.07;;;;;;;6.40;65.36;96207.59;5093071;28;20050;-48
2022/02/13 10:01:11;;;;;;;5.85;5.10;;;;;;;6.78;64.69;96199.88;5092403;28;20036;-48
2022/02/13 10:03:40;;;;;;;8.60;5.72;;;;;;;6.87;62.43;96194.84;5093425;28;20107;-48
2022/02/13 10:06:11;;;;;;;5.55;4.22;;;;;;;6.97;60.78;96199.44;5090647;28;20384;-49
2022/02/13 10:08:40;;;;;;;10.10;4.35;;;;;;;7.29;60.87;96183.22;5092758;28;20071;-50
2022/02/13 10:11:25;;;;;;;5.35;4.10;;;;;;;7.34;58.22;96181.09;5092279;28;20054;-52
2022/02/13 10:13:52;;;;;;;8.57;4.35;;;;;;;7.52;57.55;96186.84;5090631;28;20024;-47
2022/02/13 10:16:37;;;;;;;8.30;3.92;;;;;;;7.84;56.83;96177.53;5091669;28;20032;-47
2022/02/13 10:19:15;;;;;;;7.45;4.18;;;;;;;7.90;54.80;96169.25;5088369;28;20096;-48
2022/02/13 10:21:47;;;;;;;4.45;3.30;;;;;;;7.87;55.18;96166.84;5092369;28;20100;-49
2022/02/13 10:24:12;;;;;;;5.35;3.35;;;;;;;7.80;53.99;96155.13;5092165;28;20539;-51
2022/02/13 10:26:38;;;;;;;8.15;3.97;;;;;;;8.07;54.14;96164.50;5090861;28;20120;-49
2022/02/13 10:29:03;;;;;;;6.22;4.07;;;;;;;8.05;54.21;96166.41;5090861;28;20040;-47
2022/02/13 10:31:30;;;;;;;4.28;3.85;;;;;;;7.91;55.87;96159.56;5092011;28;20029;-51
2022/02/13 10:33:59;;;;;;;5.45;3.88;;;;;;;8.04;54.24;96165.59;5092643;28;20032;-49
2022/02/13 10:36:25;;;;;;;7.78;3.88;;;;;;;8.36;52.89;96164.94;5092704;28;20039;-50
2022/02/13 10:38:50;;;;;;;4.35;3.45;;;;;;;8.45;51.57;96160.78;5092608;28;20031;-51
2022/02/13 10:41:20;;;;;;;9.27;4.03;;;;;;;8.80;50.09;96159.91;5092115;28;20032;-48
2022/02/13 10:44:06;;;;;;;4.93;4.10;;;;;;;9.31;48.98;96155.91;5090355;28;20092;-50
2022/02/13 10:46:36;;;;;;;4.35;3.83;;;;;;;9.72;48.02;96157.94;5092698;28;20020;-48
2022/02/13 10:49:03;;;;;;;7.03;4.30;;;;;;;9.67;46.73;96163.56;5091569;28;20036;-47
2022/02/13 10:51:29;;;;;;;9.77;4.20;;;;;;;9.98;47.17;96154.97;5093546;28;20660;-47
2022/02/13 10:53:56;;;;;;;3.83;3.38;;;;;;;10.09;44.97;96149.63;5091127;28;20043;-48
2022/02/13 10:56:22;;;;;;;6.05;3.78;;;;;;;10.32;45.35;96142.47;5092151;28;20040;-48
2022/02/13 10:58:48;;;;;;;8.75;3.83;;;;;;;10.54;44.78;96131.94;5093058;28;20407;-48
2022/02/13 11:01:16;;;;;;;4.68;4.18;;;;;;;10.57;44.68;96132.53;5091904;28;20547;-46
2022/02/13 11:03:44;;;;;;;4.90;4.00;;;;;;;10.77;45.65;96126.50;5094979;28;20114;-49
2022/02/13 11:06:10;;;;;;;5.68;4.05;;;;;;;11.04;45.70;96120.63;5096112;28;20059;-47
2022/02/13 11:09:16;;;;;;;5.50;3.95;;;;;;;11.43;41.85;96123.38;5095693;28;20111;-48
2022/02/13 11:11:43;;;;;;;4.57;3.92;;;;;;;11.44;42.86;96122.38;5094845;28;20040;-48
2022/02/13 11:14:08;;;;;;;7.13;4.13;;;;;;;11.41;40.63;96114.75;5094705;28;20028;-50
2022/02/13 11:16:38;;;;;;;6.43;4.03;;;;;;;11.65;41.28;96110.03;5095006;28;20442;-51